Time;durP1;ratioP1;P1;durP2;ratioP2;P2;SDS_P1;SDS_P2;PMS_P1;PMS_P2;Temp;Humidity;BMP_temperature;BMP_pressure;BME280_temperature;BME280_humidity;BME280_pressure;Samples;Min_cycle;Max_cycle;Signal;HPM_P1;HPM_P2
2021/01/20 00:01:39;;;;;;;1.15;1.00;;;;;;;10.28;87.80;97891.19;4993604;28;20477;-50
2021/01/20 00:04:06;;;;;;;1.13;0.82;;;;;;;10.27;87.91;97884.09;4993501;28;20053;-53
2021/01/20 00:06:32;;;;;;;1.35;1.20;;;;;;;10.23;88.00;97886.13;4994041;28;20085;-54
2021/01/20 00:09:00;;;;;;;3.42;1.10;;;;;;;10.22;88.01;97876.25;4994275;28;20046;-53
2021/01/20 00:11:29;;;;;;;1.30;1.20;;;;;;;10.21;87.97;97871.94;4973599;28;20159;-49
2021/01/20 00:13:56;;;;;;;1.52;1.33;;;;;;;10.20;88.18;97873.13;4978026;28;20128;-52
2021/01/20 00:16:22;;;;;;;3.15;1.35;;;;;;;10.18;87.99;97870.00;4993876;28;20501;-53
2021/01/20 00:18:52;;;;;;;1.27;1.17;;;;;;;10.16;88.29;97866.88;4972152;28;20038;-53
2021/01/20 00:21:18;;;;;;;2.47;1.20;;;;;;;10.16;88.38;97872.38;4993155;28;20052;-53
2021/01/20 00:23:44;;;;;;;1.17;1.08;;;;;;;10.17;88.33;97871.19;4992514;28;20109;-51
2021/01/20 00:26:11;;;;;;;1.40;1.10;;;;;;;10.17;88.24;97868.41;4992524;28;20051;-54
2021/01/20 00:28:41;;;;;;;1.05;0.93;;;;;;;10.18;88.34;97870.00;4993937;28;20081;-50
2021/01/20 00:31:08;;;;;;;1.23;1.10;;;;;;;10.17;88.33;97868.41;4993465;28;20105;-50
2021/01/20 00:33:34;;;;;;;0.82;0.82;;;;;;;10.16;88.33;97872.38;4993332;28;20050;-53
2021/01/20 00:36:01;;;;;;;1.02;0.75;;;;;;;10.17;88.42;97859.31;4972840;28;20035;-52
2021/01/20 00:38:27;;;;;;;2.08;0.80;;;;;;;10.18;88.29;97847.09;4993383;28;20109;-52
2021/01/20 00:40:53;;;;;;;1.23;0.80;;;;;;;10.18;88.12;97855.38;4982475;28;20140;-53
2021/01/20 00:43:19;;;;;;;1.02;0.70;;;;;;;10.17;88.22;97849.06;4993374;28;20126;-54
2021/01/20 00:45:46;;;;;;;1.08;1.08;;;;;;;10.18;88.04;97853.41;4993002;28;20069;-52
2021/01/20 00:48:12;;;;;;;0.50;0.50;;;;;;;10.20;88.19;97847.44;4992247;28;20141;-53
2021/01/20 00:50:39;;;;;;;0.50;0.50;;;;;;;10.20;88.02;97839.94;4992956;28;20046;-54
2021/01/20 00:53:05;;;;;;;1.05;0.68;;;;;;;10.21;88.06;97836.00;4991709;28;20125;-55
2021/01/20 00:55:32;;;;;;;1.48;0.82;;;;;;;10.21;88.14;97841.53;4992495;28;20089;-51
2021/01/20 00:57:58;;;;;;;0.60;0.60;;;;;;;10.21;88.08;97830.47;4993263;28;20050;-55
2021/01/20 01:00:24;;;;;;;0.93;0.82;;;;;;;10.21;87.96;97827.69;4993214;28;20057;-56
2021/01/20 01:02:51;;;;;;;0.90;0.70;;;;;;;10.22;87.85;97825.69;4977360;28;20524;-53
2021/01/20 01:05:17;;;;;;;0.60;0.60;;;;;;;10.22;87.53;97820.94;4974755;28;20054;-54
2021/01/20 01:07:44;;;;;;;0.73;0.63;;;;;;;10.23;87.56;97830.81;4992664;28;20081;-53
2021/01/20 01:10:10;;;;;;;0.50;0.50;;;;;;;10.24;87.57;97820.56;4993092;28;20081;-51
2021/01/20 01:12:37;;;;;;;0.63;0.63;;;;;;;10.26;87.50;97820.91;4975059;28;20074;-53
2021/01/20 01:15:05;;;;;;;0.60;0.50;;;;;;;10.27;87.41;97816.97;4992793;28;20070;-56
2021/01/20 01:17:31;;;;;;;0.98;0.63;;;;;;;10.27;87.27;97809.44;4986121;28;20070;-54
2021/01/20 01:19:58;;;;;;;0.63;0.43;;;;;;;10.28;87.32;97813.00;4985494;28;20054;-50
2021/01/20 01:22:24;;;;;;;1.95;0.80;;;;;;;10.29;87.33;97797.97;4991959;28;20132;-53
2021/01/20 01:24:51;;;;;;;0.70;0.47;;;;;;;10.28;87.22;97808.25;4992996;28;20077;-54
2021/01/20 01:27:17;;;;;;;1.65;0.50;;;;;;;10.28;86.98;97797.19;4959454;28;20544;-51
2021/01/20 01:29:43;;;;;;;1.65;0.40;;;;;;;10.29;87.02;97792.44;4992401;28;20081;-54
2021/01/20 01:32:09;;;;;;;1.30;0.75;;;;;;;10.29;86.97;97784.16;4988378;28;20469;-54
2021/01/20 01:34:38;;;;;;;2.42;0.80;;;;;;;10.28;86.85;97788.88;4981308;28;20052;-55
2021/01/20 01:37:05;;;;;;;0.50;0.50;;;;;;;10.30;86.86;97780.16;4991520;28;20065;-54
2021/01/20 01:39:33;;;;;;;0.60;0.60;;;;;;;10.29;86.75;97779.41;4993032;28;20469;-51
2021/01/20 01:42:01;;;;;;;0.63;0.63;;;;;;;10.30;86.85;97775.44;4991763;28;20420;-49
2021/01/20 01:44:27;;;;;;;0.55;0.55;;;;;;;10.28;86.78;97791.66;4988857;28;20570;-51
2021/01/20 01:46:53;;;;;;;0.55;0.52;;;;;;;10.28;86.94;97788.88;4991780;28;20527;-53
2021/01/20 01:49:20;;;;;;;0.40;0.40;;;;;;;10.22;86.71;97809.09;4969070;28;20034;-52
2021/01/20 01:51:46;;;;;;;1.30;1.00;;;;;;;10.05;86.59;97794.28;4991711;28;20046;-51
2021/01/20 01:54:14;;;;;;;0.65;0.45;;;;;;;9.71;86.40;97797.06;4991485;28;20121;-49
2021/01/20 01:56:43;;;;;;;1.42;0.60;;;;;;;9.51;86.58;97800.78;4974888;28;20117;-49
2021/01/20 01:59:09;;;;;;;2.80;1.42;;;;;;;9.36;86.54;97807.66;4992597;28;20205;-50
2021/01/20 02:01:36;;;;;;;3.58;1.30;;;;;;;9.14;86.52;97807.81;4990989;28;20128;-50
2021/01/20 02:04:02;;;;;;;1.90;1.20;;;;;;;8.94;86.32;97804.06;4988560;28;20492;-54
2021/01/20 02:06:28;;;;;;;4.07;1.52;;;;;;;8.85;86.43;97802.94;4992484;28;20089;-55
2021/01/20 02:08:55;;;;;;;1.83;1.38;;;;;;;8.75;86.57;97799.06;4991994;28;20100;-53
2021/01/20 02:11:21;;;;;;;1.63;1.50;;;;;;;8.65;86.54;97805.44;4991458;28;20105;-53
2021/01/20 02:14:24;;;;;;;1.58;1.48;;;;;;;8.59;86.51;97807.03;4991599;28;20101;-52
2021/01/20 02:17:02;;;;;;;1.88;1.40;;;;;;;8.55;86.45;97814.56;4991283;28;20464;-55
2021/01/20 02:19:55;;;;;;;2.28;1.58;;;;;;;8.54;86.29;97799.19;4967645;28;20074;-55
2021/01/20 02:22:39;;;;;;;1.63;1.35;;;;;;;8.53;86.33;97811.41;4960476;28;20082;-54
2021/01/20 02:25:33;;;;;;;1.60;1.40;;;;;;;8.46;86.26;97803.97;4992178;28;20051;-53
2021/01/20 02:28:20;;;;;;;2.53;1.70;;;;;;;8.40;86.17;97805.56;4992218;28;20145;-54
2021/01/20 02:30:50;;;;;;;1.65;1.33;;;;;;;8.37;86.24;97802.81;4991118;28;20070;-52
2021/01/20 02:33:24;;;;;;;1.90;1.60;;;;;;;8.33;86.34;97796.56;4973371;28;20074;-54
2021/01/20 02:35:58;;;;;;;2.33;1.55;;;;;;;8.29;86.41;97798.53;4978362;28;20047;-53
2021/01/20 02:38:25;;;;;;;1.65;1.40;;;;;;;8.27;86.23;97803.66;4972660;28;20469;-51
2021/01/20 02:40:52;;;;;;;1.90;1.38;;;;;;;8.25;86.02;97806.00;4986676;28;20050;-55
2021/01/20 02:43:26;;;;;;;1.83;1.05;;;;;;;8.19;86.22;97797.38;4991398;28;20125;-54
2021/01/20 02:45:52;;;;;;;1.35;1.23;;;;;;;8.15;86.18;97801.34;4992210;28;20523;-53
2021/01/20 02:48:20;;;;;;;1.73;1.30;;;;;;;8.15;86.00;97798.59;4989616;28;20085;-55
2021/01/20 02:50:46;;;;;;;1.55;1.42;;;;;;;8.17;86.09;97797.00;4994750;28;20420;-54
2021/01/20 02:53:16;;;;;;;2.00;1.70;;;;;;;8.14;85.88;97800.56;4994812;28;20046;-52
2021/01/20 02:55:55;;;;;;;1.80;1.30;;;;;;;8.07;85.68;97792.31;4995592;28;20077;-53
2021/01/20 02:58:24;;;;;;;3.25;1.52;;;;;;;8.03;85.71;97796.25;4975584;28;20042;-55
2021/01/20 03:00:53;;;;;;;;;;;;;;;7.91;85.50;97792.00;4969612;28;20150;-52
2021/01/20 03:03:20;;;;;;;2.45;1.48;;;;;;;7.91;85.76;97792.78;4993627;28;19921;-56
2021/01/20 03:05:48;;;;;;;4.50;2.22;;;;;;;7.88;85.76;97792.78;4994611;28;20045;-51
2021/01/20 03:08:16;;;;;;;1.98;1.77;;;;;;;7.84;85.79;97792.78;4994228;28;20408;-54
2021/01/20 03:10:42;;;;;;;3.30;2.67;;;;;;;7.81;85.94;97801.84;4989891;28;20081;-54
2021/01/20 03:13:09;;;;;;;2.92;2.15;;;;;;;7.81;85.72;97814.84;4995091;28;20043;-51
2021/01/20 03:15:39;;;;;;;4.13;2.60;;;;;;;7.76;85.75;97816.03;4995036;28;20108;-53
2021/01/20 03:18:06;;;;;;;3.65;2.28;;;;;;;7.76;85.58;97816.03;4992242;28;20101;-56
2021/01/20 03:20:33;;;;;;;2.88;2.35;;;;;;;7.71;85.33;97819.19;4980869;28;20050;-53
2021/01/20 03:23:03;;;;;;;3.58;2.40;;;;;;;7.63;85.42;97814.09;4983318;28;20468;-53
2021/01/20 03:25:31;;;;;;;2.72;1.77;;;;;;;7.59;85.68;97813.31;4992123;28;20105;-53
2021/01/20 03:27:57;;;;;;;1.92;1.77;;;;;;;7.53;85.68;97820.41;4981853;28;20085;-54
2021/01/20 03:30:24;;;;;;;2.20;1.90;;;;;;;7.54;85.79;97828.28;4994728;28;20046;-51
2021/01/20 03:32:50;;;;;;;2.80;1.85;;;;;;;7.52;85.62;97830.63;4994301;28;20046;-55
2021/01/20 03:35:18;;;;;;;3.08;2.40;;;;;;;7.52;85.64;97830.63;4962514;28;20547;-54
2021/01/20 03:37:44;;;;;;;2.28;2.05;;;;;;;7.55;85.73;97829.84;4989605;28;20448;-55
2021/01/20 03:40:11;;;;;;;3.53;1.95;;;;;;;7.57;85.35;97835.72;4994812;28;20448;-52
2021/01/20 03:42:38;;;;;;;2.92;2.17;;;;;;;7.55;85.43;97829.84;4993892;28;20054;-54
2021/01/20 03:45:05;;;;;;;2.30;2.05;;;;;;;7.55;85.42;97832.59;4993992;28;20436;-54
2021/01/20 03:47:31;;;;;;;3.20;2.22;;;;;;;7.50;85.45;97832.19;4994059;28;20034;-54
2021/01/20 03:49:58;;;;;;;3.33;2.42;;;;;;;7.48;85.36;97824.34;4993674;28;20087;-55
2021/01/20 03:52:24;;;;;;;4.53;2.33;;;;;;;7.50;85.56;97827.50;4994205;28;20069;-53
2021/01/20 03:54:50;;;;;;;3.70;1.90;;;;;;;7.52;85.41;97829.88;4983150;28;20082;-54
2021/01/20 03:57:16;;;;;;;1.67;1.50;;;;;;;7.52;85.20;97830.63;4991747;28;20056;-55
2021/01/20 03:59:45;;;;;;;1.65;1.38;;;;;;;7.44;85.16;97847.56;4990193;28;20039;-55
2021/01/20 04:02:11;;;;;;;2.25;1.83;;;;;;;7.36;85.00;97835.75;4990179;28;20046;-50
2021/01/20 04:04:37;;;;;;;1.92;1.45;;;;;;;7.32;84.79;97826.72;4974910;28;20054;-53
2021/01/20 04:07:04;;;;;;;1.88;1.35;;;;;;;7.26;84.78;97829.09;4990851;28;20109;-53
2021/01/20 04:09:30;;;;;;;1.48;1.38;;;;;;;7.21;84.96;97834.19;4994134;28;20105;-52
2021/01/20 04:11:58;;;;;;;2.78;1.50;;;;;;;7.15;84.86;97833.00;4993979;28;20042;-51
2021/01/20 04:14:24;;;;;;;2.08;1.40;;;;;;;7.12;84.92;97839.31;4994281;28;20476;-56
2021/01/20 04:16:51;;;;;;;2.15;1.52;;;;;;;7.11;84.99;97837.75;4992801;28;20057;-56
2021/01/20 04:19:17;;;;;;;1.30;1.20;;;;;;;7.06;84.91;97829.88;4993971;28;20495;-53
2021/01/20 04:21:43;;;;;;;1.77;1.30;;;;;;;7.10;85.14;97833.41;4992857;28;20050;-55
2021/01/20 04:24:10;;;;;;;1.88;1.50;;;;;;;7.07;84.64;97825.97;4993509;28;20047;-53
2021/01/20 04:26:37;;;;;;;1.55;1.40;;;;;;;7.04;84.64;97832.25;4993513;28;20133;-53
2021/01/20 04:29:04;;;;;;;1.92;1.30;;;;;;;7.02;84.82;97832.63;4993417;28;20050;-54
2021/01/20 04:31:30;;;;;;;1.70;1.60;;;;;;;6.99;84.57;97822.41;4993275;28;20132;-50
2021/01/20 04:33:57;;;;;;;1.48;1.38;;;;;;;6.97;84.80;97826.72;4990883;28;20038;-54
2021/01/20 04:36:24;;;;;;;2.72;1.77;;;;;;;6.96;84.88;97836.16;4991747;28;20134;-53
2021/01/20 04:38:51;;;;;;;2.65;1.50;;;;;;;6.95;84.75;97832.63;4993500;28;20064;-54
2021/01/20 04:41:18;;;;;;;3.80;2.17;;;;;;;6.93;84.81;97840.50;4975960;28;20501;-54
2021/01/20 04:43:44;;;;;;;2.33;2.13;;;;;;;6.93;84.70;97837.75;4976163;28;20054;-53
2021/01/20 04:46:12;;;;;;;1.90;1.70;;;;;;;6.92;84.82;97832.63;4993709;28;20130;-55
2021/01/20 04:48:39;;;;;;;3.92;2.72;;;;;;;6.91;85.07;97833.81;4992325;28;20432;-54
2021/01/20 04:51:07;;;;;;;2.50;2.28;;;;;;;6.91;85.00;97850.31;4974484;28;20085;-53
2021/01/20 04:53:43;;;;;;;3.72;2.78;;;;;;;6.93;85.06;97853.44;4992523;28;20121;-55
2021/01/20 04:56:12;;;;;;;4.47;2.15;;;;;;;6.89;84.84;97849.88;4992994;28;20078;-55
2021/01/20 04:58:39;;;;;;;3.63;2.55;;;;;;;6.87;84.92;97853.03;4992743;28;20042;-53
2021/01/20 05:01:05;;;;;;;4.25;3.08;;;;;;;6.85;84.49;97843.63;4992545;28;20081;-53
2021/01/20 05:03:32;;;;;;;3.83;2.70;;;;;;;6.84;84.59;97839.28;4992504;28;20077;-53
2021/01/20 05:05:59;;;;;;;3.08;2.25;;;;;;;6.81;84.55;97827.09;4993158;28;20429;-51
2021/01/20 05:08:26;;;;;;;2.85;2.13;;;;;;;6.79;84.62;97839.66;4982514;28;20547;-52
2021/01/20 05:10:52;;;;;;;3.35;1.95;;;;;;;6.77;84.66;97831.03;4986915;28;20065;-55
2021/01/20 05:13:27;;;;;;;2.70;1.58;;;;;;;6.71;84.65;97853.41;4974827;28;20074;-53
2021/01/20 05:15:54;;;;;;;2.08;1.33;;;;;;;6.74;84.48;97840.84;4992934;28;20096;-56
2021/01/20 05:18:21;;;;;;;2.05;1.45;;;;;;;6.67;84.48;97825.13;4970386;28;20050;-54
2021/01/20 05:20:47;;;;;;;1.88;1.50;;;;;;;6.65;84.51;97838.47;4992854;28;20046;-51
2021/01/20 05:23:14;;;;;;;2.13;1.13;;;;;;;6.62;84.19;97839.25;4992150;28;20080;-55
2021/01/20 05:25:44;;;;;;;1.08;0.98;;;;;;;6.61;84.16;97837.69;4987302;28;20086;-53
2021/01/20 05:28:20;;;;;;;0.98;0.73;;;;;;;6.57;83.96;97831.38;4992305;28;20042;-54
2021/01/20 05:30:49;;;;;;;2.63;1.40;;;;;;;6.55;84.09;97822.75;4992785;28;20066;-53
2021/01/20 05:33:26;;;;;;;1.98;1.38;;;;;;;6.53;84.09;97807.81;4991473;28;20045;-55
2021/01/20 05:36:09;;;;;;;1.83;1.40;;;;;;;6.49;84.38;97813.31;4992798;28;20042;-54
2021/01/20 05:38:45;;;;;;;1.52;1.23;;;;;;;6.50;84.46;97816.84;4992782;28;20058;-52
2021/01/20 05:41:20;;;;;;;2.05;1.45;;;;;;;6.50;84.44;97819.59;4992499;28;20049;-54
2021/01/20 05:43:51;;;;;;;1.30;1.20;;;;;;;6.45;84.32;97820.75;4984990;28;20093;-50
2021/01/20 05:46:34;;;;;;;3.65;1.45;;;;;;;6.40;84.33;97837.63;4992754;28;20116;-51
2021/01/20 05:49:01;;;;;;;3.33;1.02;;;;;;;6.42;84.58;97824.28;4989207;28;20108;-53
2021/01/20 05:51:41;;;;;;;1.40;1.13;;;;;;;6.41;84.33;97806.22;4991955;28;20069;-50
2021/01/20 05:54:08;;;;;;;1.60;0.88;;;;;;;6.43;84.30;97798.38;4992091;28;20125;-50
2021/01/20 05:56:35;;;;;;;1.33;0.95;;;;;;;6.40;84.48;97799.16;4988785;28;20760;-53
2021/01/20 05:59:09;;;;;;;1.17;0.88;;;;;;;6.39;84.50;97803.06;4991115;28;20465;-54
2021/01/20 06:01:37;;;;;;;2.55;1.10;;;;;;;6.37;84.19;97816.41;4988342;28;20038;-53
2021/01/20 06:04:07;;;;;;;1.73;0.98;;;;;;;6.37;84.30;97810.94;4974545;28;20602;-54
2021/01/20 06:06:35;;;;;;;1.55;1.05;;;;;;;6.41;84.49;97805.41;4984849;28;20082;-54
2021/01/20 06:09:01;;;;;;;2.47;1.17;;;;;;;6.38;84.64;97812.47;4992345;28;20057;-53
2021/01/20 06:11:28;;;;;;;1.80;1.15;;;;;;;6.37;84.59;97810.94;4991467;28;20576;-52
2021/01/20 06:13:55;;;;;;;1.35;0.90;;;;;;;6.41;84.50;97811.72;4991705;28;20061;-53
2021/01/20 06:16:28;;;;;;;5.45;3.25;;;;;;;6.44;84.19;97821.94;4986847;28;20763;-54
2021/01/20 06:19:07;;;;;;;1.23;0.90;;;;;;;6.47;83.97;97815.66;4991044;28;20074;-54
2021/01/20 06:21:35;;;;;;;1.42;1.30;;;;;;;6.45;83.88;97811.72;4990085;28;20054;-50
2021/01/20 06:24:13;;;;;;;1.92;1.20;;;;;;;6.39;83.86;97797.56;4991908;28;20054;-52
2021/01/20 06:26:58;;;;;;;1.63;1.08;;;;;;;6.39;84.04;97791.28;4989644;28;20043;-51
2021/01/20 06:29:28;;;;;;;2.47;1.05;;;;;;;6.40;84.06;97776.38;4991231;28;20071;-53
2021/01/20 06:31:56;;;;;;;2.70;1.33;;;;;;;6.37;83.96;97777.16;4991900;28;20077;-50
2021/01/20 06:34:23;;;;;;;1.95;1.40;;;;;;;6.34;84.57;97784.22;4989845;28;20049;-55
2021/01/20 06:36:49;;;;;;;2.58;1.50;;;;;;;6.33;83.99;97777.16;4991535;28;20082;-55
2021/01/20 06:39:28;;;;;;;3.22;1.83;;;;;;;6.33;84.40;97781.88;4991430;28;20077;-53
2021/01/20 06:41:56;;;;;;;3.08;1.70;;;;;;;6.35;84.24;97785.81;4990886;28;20065;-50
2021/01/20 06:44:23;;;;;;;2.33;1.55;;;;;;;6.37;84.24;97769.72;4991275;28;20489;-53
2021/01/20 06:46:55;;;;;;;3.15;2.17;;;;;;;6.38;84.14;97774.00;4979143;28;20030;-50
2021/01/20 06:49:29;;;;;;;1.48;1.35;;;;;;;6.38;83.99;97770.50;4989407;28;20496;-54
2021/01/20 06:52:09;;;;;;;2.47;1.90;;;;;;;6.33;83.73;97766.16;4972861;28;20078;-50
2021/01/20 06:54:41;;;;;;;2.28;1.73;;;;;;;6.37;83.92;97760.69;4971877;28;20547;-52
2021/01/20 06:57:27;;;;;;;1.95;1.70;;;;;;;6.29;83.40;97753.59;4971991;28;20057;-53
2021/01/20 07:00:14;;;;;;;2.15;1.63;;;;;;;6.25;83.80;97759.06;4954503;28;20126;-54
2021/01/20 07:03:04;;;;;;;2.42;1.73;;;;;;;6.23;83.20;97758.69;4972067;28;20082;-52
2021/01/20 07:05:35;;;;;;;3.53;1.77;;;;;;;6.21;83.53;97750.06;4971436;28;20102;-54
2021/01/20 07:08:02;;;;;;;2.67;1.98;;;;;;;6.21;83.42;97747.31;4971225;28;20054;-54
2021/01/20 07:10:31;;;;;;;2.67;1.70;;;;;;;6.20;83.30;97736.69;4971339;28;20110;-54
2021/01/20 07:13:10;;;;;;;3.60;2.20;;;;;;;6.14;82.90;97745.31;4971187;28;20576;-52
2021/01/20 07:15:43;;;;;;;3.20;1.80;;;;;;;6.16;83.17;97730.41;4971955;28;20133;-53
2021/01/20 07:18:13;;;;;;;1.83;1.38;;;;;;;6.14;83.23;97728.06;4970483;28;20035;-55
2021/01/20 07:20:41;;;;;;;3.10;1.60;;;;;;;6.17;83.51;97721.78;4971836;28;20053;-56
2021/01/20 07:23:10;;;;;;;3.00;1.90;;;;;;;6.21;83.74;97719.84;4953082;28;20053;-56
2021/01/20 07:25:37;;;;;;;4.32;1.75;;;;;;;6.25;83.62;97723.34;4970909;28;20108;-53
2021/01/20 07:28:04;;;;;;;1.38;1.15;;;;;;;6.22;83.03;97717.88;4970844;28;20078;-54
2021/01/20 07:30:30;;;;;;;2.63;1.00;;;;;;;6.17;83.23;97715.53;4971407;28;20106;-54
2021/01/20 07:32:57;;;;;;;1.45;0.80;;;;;;;6.13;83.20;97712.75;4974005;28;20154;-55
2021/01/20 07:35:26;;;;;;;2.10;1.10;;;;;;;6.12;83.20;97719.41;4973588;28;20043;-54
2021/01/20 07:38:04;;;;;;;1.95;1.40;;;;;;;6.11;82.89;97715.91;4974401;28;20126;-52
2021/01/20 07:40:36;;;;;;;2.65;1.33;;;;;;;6.11;82.93;97709.63;4975098;28;20049;-54
2021/01/20 07:43:04;;;;;;;1.30;1.00;;;;;;;6.10;83.01;97710.78;4973649;28;20047;-53
2021/01/20 07:45:34;;;;;;;2.80;1.65;;;;;;;6.09;83.31;97715.47;4974915;28;20047;-50
2021/01/20 07:48:03;;;;;;;2.63;2.25;;;;;;;6.11;83.01;97726.88;4957019;28;20043;-55
2021/01/20 07:50:42;;;;;;;2.13;1.50;;;;;;;6.15;82.69;97724.13;4975076;28;20054;-52
2021/01/20 07:53:27;;;;;;;2.38;1.33;;;;;;;6.13;82.48;97727.28;4973450;28;20126;-53
2021/01/20 07:55:55;;;;;;;3.47;1.40;;;;;;;6.12;82.52;97727.66;4981357;28;20142;-51
2021/01/20 07:58:26;;;;;;;4.60;1.92;;;;;;;6.11;82.59;97723.34;4973197;28;20090;-53
2021/01/20 08:00:52;;;;;;;3.13;1.02;;;;;;;6.12;82.77;97727.66;4961117;28;20105;-51
2021/01/20 08:03:35;;;;;;;3.38;1.67;;;;;;;6.08;82.95;97721.38;4975209;28;20176;-52
2021/01/20 08:06:07;;;;;;;4.22;1.30;;;;;;;6.10;83.09;97730.00;4974808;28;20130;-53
2021/01/20 08:08:49;;;;;;;3.15;1.55;;;;;;;6.08;82.41;97733.16;4974897;28;20141;-54
2021/01/20 08:11:17;;;;;;;2.50;1.55;;;;;;;6.01;83.02;97722.13;4974708;28;20089;-51
2021/01/20 08:13:43;;;;;;;1.92;1.50;;;;;;;6.00;83.00;97726.06;4974710;28;20433;-53
2021/01/20 08:16:10;;;;;;;2.60;1.52;;;;;;;6.01;82.98;97727.63;4958607;28;20047;-52
2021/01/20 08:18:37;;;;;;;3.70;1.65;;;;;;;6.05;83.12;97724.91;4956494;28;20051;-53
2021/01/20 08:21:07;;;;;;;3.50;1.90;;;;;;;6.04;82.89;97726.06;4970308;28;20042;-51
2021/01/20 08:23:57;;;;;;;1.88;1.30;;;;;;;6.06;82.85;97718.25;4966741;28;20066;-50
2021/01/20 08:26:26;;;;;;;1.75;1.20;;;;;;;6.09;82.90;97720.19;4949705;28;20039;-54
2021/01/20 08:29:07;;;;;;;2.17;1.63;;;;;;;6.10;82.93;97730.81;4958482;28;20039;-52
2021/01/20 08:31:35;;;;;;;2.33;1.58;;;;;;;6.09;82.67;97722.94;4953847;28;20043;-52
2021/01/20 08:34:15;;;;;;;2.55;1.75;;;;;;;6.00;82.71;97723.31;4965681;28;20051;-56
2021/01/20 08:36:51;;;;;;;3.05;1.80;;;;;;;5.97;83.11;97726.06;4961759;28;20043;-53
2021/01/20 08:39:18;;;;;;;3.97;2.10;;;;;;;5.99;83.11;97727.22;4954711;28;20074;-59
2021/01/20 08:42:16;;;;;;;5.15;2.10;;;;;;;5.97;82.63;97720.56;4970713;28;20074;-56
2021/01/20 08:45:05;;;;;;;3.85;2.30;;;;;;;5.94;83.10;97719.38;4958771;28;20055;-55
2021/01/20 08:47:50;;;;;;;2.97;2.03;;;;;;;5.94;83.02;97722.13;4953625;28;20045;-51
2021/01/20 08:50:27;;;;;;;3.67;2.20;;;;;;;5.94;83.07;97713.09;4959313;28;20466;-53
2021/01/20 08:52:56;;;;;;;4.70;3.00;;;;;;;5.95;83.38;97706.44;4979618;28;20057;-54
2021/01/20 08:55:24;;;;;;;4.68;2.65;;;;;;;5.94;83.06;97710.34;4973543;28;20145;-55
2021/01/20 08:58:23;;;;;;;5.07;2.55;;;;;;;5.90;83.02;97699.38;4973156;28;20574;-55
2021/01/20 09:00:50;;;;;;;4.00;2.08;;;;;;;5.92;83.04;97682.50;4978465;28;20065;-63
2021/01/20 09:03:36;;;;;;;3.50;2.33;;;;;;;5.91;83.16;97683.66;4981162;28;20475;-57
2021/01/20 09:06:05;;;;;;;3.75;2.50;;;;;;;5.92;83.10;97685.25;4983750;28;20050;-55
2021/01/20 09:08:38;;;;;;;4.00;2.78;;;;;;;5.93;82.99;97686.84;4989855;28;20395;-53
2021/01/20 09:11:12;;;;;;;4.38;2.92;;;;;;;5.99;83.14;97674.28;4983477;28;20049;-56
2021/01/20 09:13:41;;;;;;;4.85;3.05;;;;;;;6.07;82.85;97673.09;4976087;28;20113;-53
2021/01/20 09:16:07;;;;;;;6.32;3.75;;;;;;;6.12;82.73;97675.47;4982060;28;20049;-56
2021/01/20 09:18:34;;;;;;;5.07;3.08;;;;;;;6.13;83.00;97671.56;4979074;28;20059;-53
2021/01/20 09:21:00;;;;;;;5.75;2.72;;;;;;;6.15;82.89;97671.94;4987109;28;20042;-53
2021/01/20 09:23:27;;;;;;;8.52;4.05;;;;;;;6.17;83.22;97669.59;4987174;28;20042;-56
2021/01/20 09:25:56;;;;;;;9.70;2.70;;;;;;;6.17;83.00;97658.59;4988337;28;20049;-55
2021/01/20 09:28:24;;;;;;;5.43;2.95;;;;;;;6.14;83.33;97654.69;4984597;28;20058;-51
2021/01/20 09:30:50;;;;;;;4.57;3.20;;;;;;;6.17;83.06;97642.13;4983394;28;20038;-55
2021/01/20 09:33:17;;;;;;;4.78;3.00;;;;;;;6.15;83.03;97633.50;4989510;28;20050;-53
2021/01/20 09:35:46;;;;;;;4.53;2.60;;;;;;;6.16;83.02;97624.09;4987918;28;20058;-52
2021/01/20 09:38:13;;;;;;;4.35;2.35;;;;;;;6.13;82.65;97630.34;4956193;28;20046;-56
2021/01/20 09:40:39;;;;;;;4.50;1.80;;;;;;;6.16;82.63;97623.28;4967250;28;20046;-54
2021/01/20 09:43:06;;;;;;;4.60;2.25;;;;;;;6.11;82.42;97622.53;4952253;28;20686;-55
2021/01/20 09:45:32;;;;;;;3.55;2.42;;;;;;;6.12;82.75;97626.81;4980711;28;20073;-52
2021/01/20 09:48:02;;;;;;;4.57;2.55;;;;;;;6.21;82.50;97620.16;4986828;28;20104;-54
2021/01/20 09:50:34;;;;;;;4.85;3.10;;;;;;;6.21;82.58;97620.16;4969584;28;20543;-52
2021/01/20 09:53:02;;;;;;;;;;;;;;;6.16;82.50;97607.59;4979625;28;20042;-54
2021/01/20 09:55:30;;;;;;;2.40;1.83;;;;;;;6.21;82.58;97620.94;4988552;28;20387;-57
2021/01/20 09:58:02;;;;;;;6.88;1.90;;;;;;;6.18;81.83;97608.00;4965033;28;20093;-51
2021/01/20 10:00:29;;;;;;;5.22;2.45;;;;;;;6.17;82.36;97603.66;4987449;28;20138;-53
2021/01/20 10:02:56;;;;;;;2.80;2.10;;;;;;;6.16;82.49;97610.34;4984529;28;20104;-56
2021/01/20 10:05:23;;;;;;;3.42;2.33;;;;;;;6.12;82.15;97621.31;4987346;28;20046;-52
2021/01/20 10:07:49;;;;;;;5.60;2.38;;;;;;;6.17;82.37;97614.66;4968043;28;20052;-54
2021/01/20 10:10:16;;;;;;;3.80;2.25;;;;;;;6.17;82.22;97614.66;4987448;28;20571;-54
2021/01/20 10:12:43;;;;;;;3.65;2.13;;;;;;;6.12;82.42;97601.31;4987573;28;20489;-55
2021/01/20 10:15:09;;;;;;;3.75;2.63;;;;;;;6.11;82.53;97594.28;4988408;28;20097;-52
2021/01/20 10:17:36;;;;;;;4.85;2.65;;;;;;;6.09;82.42;97599.34;4969500;28;20405;-53
2021/01/20 10:20:05;;;;;;;8.45;3.60;;;;;;;6.10;82.52;97592.69;4987077;28;20046;-55
2021/01/20 10:22:32;;;;;;;6.35;3.83;;;;;;;6.05;82.60;97595.81;4988963;28;20445;-51
2021/01/20 10:24:59;;;;;;;8.35;4.10;;;;;;;6.06;82.43;97597.41;4987123;28;20050;-53
2021/01/20 10:27:25;;;;;;;5.13;3.17;;;;;;;6.09;82.43;97596.59;4986742;28;20151;-54
2021/01/20 10:29:52;;;;;;;6.15;4.18;;;;;;;6.03;82.16;97604.47;4989035;28;20073;-53
2021/01/20 10:32:19;;;;;;;5.38;3.58;;;;;;;6.03;81.80;97609.16;4982635;28;20085;-50
2021/01/20 10:34:45;;;;;;;5.63;3.30;;;;;;;5.99;82.36;97613.88;4974794;28;20692;-54
2021/01/20 10:37:11;;;;;;;7.70;4.10;;;;;;;6.03;82.48;97625.66;4981882;28;20042;-54
2021/01/20 10:39:38;;;;;;;5.53;3.20;;;;;;;6.02;82.55;97624.84;4987182;28;20074;-54
2021/01/20 10:42:04;;;;;;;14.32;4.45;;;;;;;6.01;82.73;97617.03;4986422;28;20161;-55
2021/01/20 10:44:30;;;;;;;7.35;4.35;;;;;;;6.01;82.64;97619.78;4988737;28;20049;-56
2021/01/20 10:46:57;;;;;;;7.72;4.80;;;;;;;5.98;82.73;97631.53;4986045;28;20148;-56
2021/01/20 10:49:23;;;;;;;16.05;7.85;;;;;;;6.00;82.86;97623.69;4986300;28;20038;-54
2021/01/20 10:51:51;;;;;;;7.25;4.45;;;;;;;5.96;82.53;97617.38;4982951;28;20058;-54
2021/01/20 10:54:17;;;;;;;8.52;4.93;;;;;;;5.94;82.36;97627.97;4986132;28;20047;-54
2021/01/20 10:56:43;;;;;;;9.02;5.13;;;;;;;5.92;82.62;97630.34;4986650;28;20109;-55
2021/01/20 10:59:11;;;;;;;8.10;5.25;;;;;;;5.87;82.17;97627.97;4987623;28;20069;-55
2021/01/20 11:01:38;;;;;;;5.78;4.15;;;;;;;5.78;82.17;97628.31;4986226;28;20108;-55
2021/01/20 11:04:04;;;;;;;5.57;3.90;;;;;;;5.75;82.34;97625.56;4988028;28;20092;-53
2021/01/20 11:06:31;;;;;;;7.30;4.20;;;;;;;5.73;82.45;97625.97;4970321;28;20112;-56
2021/01/20 11:08:59;;;;;;;6.35;4.10;;;;;;;5.67;82.51;97630.25;4986958;28;20822;-55
2021/01/20 11:11:26;;;;;;;5.72;4.15;;;;;;;5.68;82.15;97631.03;4974797;28;20058;-54
2021/01/20 11:13:54;;;;;;;7.25;4.25;;;;;;;5.67;82.66;97619.28;4990241;28;20054;-54
2021/01/20 11:16:20;;;;;;;5.72;3.85;;;;;;;5.66;82.40;97619.66;4970593;28;20105;-56
2021/01/20 11:18:46;;;;;;;4.63;2.83;;;;;;;5.64;82.70;97617.28;4983997;28;20162;-53
2021/01/20 11:21:14;;;;;;;4.57;3.00;;;;;;;5.63;82.54;97613.00;4989774;28;20049;-56
2021/01/20 11:23:45;;;;;;;5.03;2.60;;;;;;;5.63;82.39;97601.22;4982525;28;20057;-55
2021/01/20 11:26:12;;;;;;;3.65;2.67;;;;;;;5.64;82.59;97605.56;4974954;28;20738;-55
2021/01/20 11:28:38;;;;;;;4.43;2.42;;;;;;;5.60;82.45;97604.75;4971702;28;20158;-56
2021/01/20 11:31:05;;;;;;;5.00;2.75;;;;;;;5.51;82.28;97594.94;4990585;28;20137;-56
2021/01/20 11:33:37;;;;;;;2.55;2.30;;;;;;;5.47;82.46;97593.34;4990834;28;20102;-56
2021/01/20 11:36:05;;;;;;;4.20;2.70;;;;;;;5.48;82.55;97586.72;4991620;28;20054;-55
2021/01/20 11:38:32;;;;;;;5.80;2.75;;;;;;;5.49;82.47;97594.53;4984801;28;20101;-57
2021/01/20 11:40:58;;;;;;;4.40;2.92;;;;;;;5.46;82.60;97587.06;4990710;28;20460;-56
2021/01/20 11:43:25;;;;;;;5.93;3.22;;;;;;;5.38;82.71;97584.69;4991271;28;20045;-52
2021/01/20 11:45:51;;;;;;;7.80;3.30;;;;;;;5.40;82.72;97576.88;4991645;28;20046;-54
2021/01/20 11:48:21;;;;;;;4.45;2.85;;;;;;;5.45;82.81;97576.50;4991822;28;20077;-54
2021/01/20 11:50:47;;;;;;;4.65;3.22;;;;;;;5.48;82.94;97579.25;4988776;28;20050;-50
2021/01/20 11:53:22;;;;;;;5.47;3.00;;;;;;;5.49;82.75;97564.34;4990281;28;20100;-54